Hayward, WI

7:59 AM CDT on August 21, 2014 (GMT -0500)
Sawyer County | Change Station
CLOSE
Current Station
Airport
Location: Hayward,
Elevation: 1214 ft
Nearby Weather Stations

Elev 1214 ft 46.02 °N, 91.45 °W | Updated 6 minutes ago

Thunderstorms and Rain
Thunderstorm Rain Mist
62 °F
Feels Like 62 °F
N
5
Wind Variable Wind from ESE

Today
High -- | Low -- °F
--% Chance of Precip.
Yesterday
High -- | Low -- °F
Precip. -- in
6:12 AM 8:03 PM
Waning Crescent, 14% visible
Pressure 29.93 in
Visibility 5.0 miles
Clouds Few 3500 ft
Mostly Cloudy 7000 ft
Overcast 9000 ft
Dew Point 61 °F
Humidity 96%
Rainfall 0.01 in
Snow Depth Not available.
UV 0 out of 12
Pollen 4.10 out of 12
Air Quality Not available.
Flu Activity Not available.
METAR KHYR 211253Z AUTO 11004KT 5SM TSRA BR FEW035 BKN070 OVC090 17/16 A2993 RMK AO2 LTG DSNT E AND S RAB40 TSB38 SLP134 P0001 T01670161

More Conditions Fewer Conditions

Pressure 29.93 in
Visibility 5.0 miles
Clouds Few 3500 ft
Mostly Cloudy 7000 ft
Overcast 9000 ft
Dew Point 61 °F
Humidity 96%
Rainfall 0.01 in
Snow Depth Not available.
UV 0 out of 12
Pollen 4.10 out of 12
Air Quality Not available.
Flu Activity Not available.
METAR KHYR 211253Z AUTO 11004KT 5SM TSRA BR FEW035 BKN070 OVC090 17/16 A2993 RMK AO2 LTG DSNT E AND S RAB40 TSB38 SLP134 P0001 T01670161

More Conditions Fewer Conditions

10-Day Weather Forecast

Almanac

Astronomy

Aug. 21, 2014 Rise Set
Actual Time 6:12 AM CDT 8:03 PM CDT
Civil Twilight 5:40 AM CDT 8:35 PM CDT
Nautical Twilight 5:01 AM CDT 9:14 PM CDT
Astronomical Twilight 4:18 AM CDT 9:57 PM CDT
Moon 2:37 AM CDT 5:37 PM CDT
Length of Visible Light 14h 55m
Length of Day
13h 51m
Tomorrow will be 3m 0s shorter.
Waning Crescent, 14% of the Moon is Illuminated
Today
Waning Crescent
Aug 25
New
Sep 2
First Quarter
Sep 8
Full
Sep 15
Last Quarter

Today's Extremes

State Highs State Lows

Community

WunderPhotos

Upload Photos

1,745,895 photos uploaded!

WunderBlogs® & News

By Dr. Jeff Masters
Director of Meteorology, Weather Underground
By Kari Strenfel
Meteorologist, Weather Underground
By Christopher C. Burt
Weather Historian, Weather Underground
August 21, 2014
August 21, 2014
August 21, 2014

Nearby

Snow Depth

Station Depth Elevation
No new snow has been reported.

Earthquake Activity

City Distance Mag. Time & Date
No recent earthquake activity has been reported nearby.
Minimum magnitude displayed is 2.5.

Coastal Water Temperatures

Place Temperature
No Stations Reporting

Nearby Weather Stations